sensor_id;sensor_type;location;lat;lon;timestamp;temperature;humidity
83466;DHT22;73393;51.946;20.140;2024-01-15T00:00:17;1.20;94.30
83466;DHT22;73393;51.946;20.140;2024-01-15T00:02:43;1.10;95.50
83466;DHT22;73393;51.946;20.140;2024-01-15T00:05:08;1.10;96.50
83466;DHT22;73393;51.946;20.140;2024-01-15T00:07:35;1.10;96.60
83466;DHT22;73393;51.946;20.140;2024-01-15T00:10:01;1.10;97.10
83466;DHT22;73393;51.946;20.140;2024-01-15T00:12:27;1.00;97.20
83466;DHT22;73393;51.946;20.140;2024-01-15T00:14:53;1.00;97.20
83466;DHT22;73393;51.946;20.140;2024-01-15T00:17:18;0.90;97.20
83466;DHT22;73393;51.946;20.140;2024-01-15T00:19:44;0.90;97.20
83466;DHT22;73393;51.946;20.140;2024-01-15T00:22:09;0.90;97.60
83466;DHT22;73393;51.946;20.140;2024-01-15T00:24:35;0.90;97.50
83466;DHT22;73393;51.946;20.140;2024-01-15T00:27:01;0.90;97.20
83466;DHT22;73393;51.946;20.140;2024-01-15T00:29:26;0.90;97.10
83466;DHT22;73393;51.946;20.140;2024-01-15T00:31:52;0.80;97.20
83466;DHT22;73393;51.946;20.140;2024-01-15T00:34:17;0.80;97.30
83466;DHT22;73393;51.946;20.140;2024-01-15T00:36:43;0.80;97.20
83466;DHT22;73393;51.946;20.140;2024-01-15T00:39:09;0.80;96.90
83466;DHT22;73393;51.946;20.140;2024-01-15T00:41:36;0.90;96.30
83466;DHT22;73393;51.946;20.140;2024-01-15T00:44:01;0.80;96.10
83466;DHT22;73393;51.946;20.140;2024-01-15T00:46:28;0.80;96.00
83466;DHT22;73393;51.946;20.140;2024-01-15T00:48:54;0.90;95.80
83466;DHT22;73393;51.946;20.140;2024-01-15T00:51:19;0.90;95.70
83466;DHT22;73393;51.946;20.140;2024-01-15T00:53:45;0.90;95.10
83466;DHT22;73393;51.946;20.140;2024-01-15T00:56:10;0.80;95.10
83466;DHT22;73393;51.946;20.140;2024-01-15T00:58:36;0.80;95.20
83466;DHT22;73393;51.946;20.140;2024-01-15T01:01:01;0.90;95.20
83466;DHT22;73393;51.946;20.140;2024-01-15T01:03:27;0.90;94.90
83466;DHT22;73393;51.946;20.140;2024-01-15T01:05:53;0.90;94.60
83466;DHT22;73393;51.946;20.140;2024-01-15T01:08:18;0.80;94.50
83466;DHT22;73393;51.946;20.140;2024-01-15T01:10:44;0.80;94.90
83466;DHT22;73393;51.946;20.140;2024-01-15T01:13:10;0.70;95.00
83466;DHT22;73393;51.946;20.140;2024-01-15T01:15:35;0.80;94.80
83466;DHT22;73393;51.946;20.140;2024-01-15T01:18:01;0.80;94.70
83466;DHT22;73393;51.946;20.140;2024-01-15T01:20:26;0.80;94.80
83466;DHT22;73393;51.946;20.140;2024-01-15T01:22:52;0.80;94.30
83466;DHT22;73393;51.946;20.140;2024-01-15T01:25:17;0.80;93.70
83466;DHT22;73393;51.946;20.140;2024-01-15T01:27:43;0.90;93.60
83466;DHT22;73393;51.946;20.140;2024-01-15T01:30:09;0.90;93.10
83466;DHT22;73393;51.946;20.140;2024-01-15T01:32:34;0.90;92.90
83466;DHT22;73393;51.946;20.140;2024-01-15T01:35:01;0.90;92.40
83466;DHT22;73393;51.946;20.140;2024-01-15T01:37:26;0.90;92.30
83466;DHT22;73393;51.946;20.140;2024-01-15T01:39:52;0.80;92.30
83466;DHT22;73393;51.946;20.140;2024-01-15T01:42:17;0.90;92.30
83466;DHT22;73393;51.946;20.140;2024-01-15T01:44:43;1.00;91.70
83466;DHT22;73393;51.946;20.140;2024-01-15T01:47:08;1.00;91.60
83466;DHT22;73393;51.946;20.140;2024-01-15T01:49:34;1.00;91.40
83466;DHT22;73393;51.946;20.140;2024-01-15T01:52:01;1.00;92.10
83466;DHT22;73393;51.946;20.140;2024-01-15T01:54:29;0.90;92.60
83466;DHT22;73393;51.946;20.140;2024-01-15T01:56:57;1.00;92.70
83466;DHT22;73393;51.946;20.140;2024-01-15T01:59:25;0.90;92.50
83466;DHT22;73393;51.946;20.140;2024-01-15T02:02:19;1.00;92.20
83466;DHT22;73393;51.946;20.140;2024-01-15T02:04:47;0.90;92.10
83466;DHT22;73393;51.946;20.140;2024-01-15T02:07:13;1.00;91.80
83466;DHT22;73393;51.946;20.140;2024-01-15T02:09:39;1.00;91.90
83466;DHT22;73393;51.946;20.140;2024-01-15T02:12:05;1.10;92.20
83466;DHT22;73393;51.946;20.140;2024-01-15T02:14:31;0.90;94.30
83466;DHT22;73393;51.946;20.140;2024-01-15T02:16:56;0.80;95.60
83466;DHT22;73393;51.946;20.140;2024-01-15T02:19:22;0.80;96.10
83466;DHT22;73393;51.946;20.140;2024-01-15T02:21:47;0.70;95.60
83466;DHT22;73393;51.946;20.140;2024-01-15T02:24:13;0.70;94.90
83466;DHT22;73393;51.946;20.140;2024-01-15T02:26:39;0.70;95.50
83466;DHT22;73393;51.946;20.140;2024-01-15T02:29:08;0.80;95.40
83466;DHT22;73393;51.946;20.140;2024-01-15T02:31:34;0.80;94.80
83466;DHT22;73393;51.946;20.140;2024-01-15T02:34:00;0.80;95.10
83466;DHT22;73393;51.946;20.140;2024-01-15T02:36:25;0.80;95.10
83466;DHT22;73393;51.946;20.140;2024-01-15T02:38:51;0.90;95.20
83466;DHT22;73393;51.946;20.140;2024-01-15T02:41:16;0.90;94.80
83466;DHT22;73393;51.946;20.140;2024-01-15T02:43:42;0.90;94.80
83466;DHT22;73393;51.946;20.140;2024-01-15T02:46:08;0.90;94.60
83466;DHT22;73393;51.946;20.140;2024-01-15T02:48:33;1.00;94.50
83466;DHT22;73393;51.946;20.140;2024-01-15T02:51:01;0.90;94.20
83466;DHT22;73393;51.946;20.140;2024-01-15T02:53:26;0.90;94.60
83466;DHT22;73393;51.946;20.140;2024-01-15T02:55:52;0.80;94.30
83466;DHT22;73393;51.946;20.140;2024-01-15T02:58:18;0.90;94.40
83466;DHT22;73393;51.946;20.140;2024-01-15T03:00:43;0.80;94.20
83466;DHT22;73393;51.946;20.140;2024-01-15T03:03:09;0.90;94.00
83466;DHT22;73393;51.946;20.140;2024-01-15T03:05:34;0.90;93.30
83466;DHT22;73393;51.946;20.140;2024-01-15T03:08:00;0.90;93.50
83466;DHT22;73393;51.946;20.140;2024-01-15T03:10:26;0.90;93.10
83466;DHT22;73393;51.946;20.140;2024-01-15T03:12:51;0.90;92.80
83466;DHT22;73393;51.946;20.140;2024-01-15T03:15:17;0.90;92.80
83466;DHT22;73393;51.946;20.140;2024-01-15T03:17:44;0.90;92.40
83466;DHT22;73393;51.946;20.140;2024-01-15T03:20:10;0.80;92.70
83466;DHT22;73393;51.946;20.140;2024-01-15T03:22:36;0.90;93.10
83466;DHT22;73393;51.946;20.140;2024-01-15T03:25:01;0.90;92.70
83466;DHT22;73393;51.946;20.140;2024-01-15T03:27:27;0.90;92.50
83466;DHT22;73393;51.946;20.140;2024-01-15T03:29:52;0.80;92.60
83466;DHT22;73393;51.946;20.140;2024-01-15T03:32:18;0.80;92.60
83466;DHT22;73393;51.946;20.140;2024-01-15T03:34:45;0.90;92.90
83466;DHT22;73393;51.946;20.140;2024-01-15T03:37:12;0.90;93.20
83466;DHT22;73393;51.946;20.140;2024-01-15T03:39:38;0.90;93.10
83466;DHT22;73393;51.946;20.140;2024-01-15T03:42:03;0.80;93.50
83466;DHT22;73393;51.946;20.140;2024-01-15T03:44:29;0.80;93.80
83466;DHT22;73393;51.946;20.140;2024-01-15T03:46:55;0.80;94.10
83466;DHT22;73393;51.946;20.140;2024-01-15T03:49:20;0.80;94.40
83466;DHT22;73393;51.946;20.140;2024-01-15T03:51:46;0.70;94.90
83466;DHT22;73393;51.946;20.140;2024-01-15T03:54:11;0.70;95.10
83466;DHT22;73393;51.946;20.140;2024-01-15T03:56:37;0.70;95.10
83466;DHT22;73393;51.946;20.140;2024-01-15T03:59:03;0.70;95.10
83466;DHT22;73393;51.946;20.140;2024-01-15T04:01:28;0.70;94.50
83466;DHT22;73393;51.946;20.140;2024-01-15T04:03:55;0.70;94.20
83466;DHT22;73393;51.946;20.140;2024-01-15T04:06:20;0.70;93.90
83466;DHT22;73393;51.946;20.140;2024-01-15T04:08:46;0.70;93.60
83466;DHT22;73393;51.946;20.140;2024-01-15T04:11:11;0.80;93.00
83466;DHT22;73393;51.946;20.140;2024-01-15T04:13:37;0.80;92.40
83466;DHT22;73393;51.946;20.140;2024-01-15T04:16:03;0.80;92.30
83466;DHT22;73393;51.946;20.140;2024-01-15T04:18:29;0.70;92.30
83466;DHT22;73393;51.946;20.140;2024-01-15T04:20:54;0.70;92.90
83466;DHT22;73393;51.946;20.140;2024-01-15T04:23:20;0.70;93.10
83466;DHT22;73393;51.946;20.140;2024-01-15T04:25:47;0.70;93.60
83466;DHT22;73393;51.946;20.140;2024-01-15T04:28:12;0.60;94.20
83466;DHT22;73393;51.946;20.140;2024-01-15T04:30:38;0.60;94.60
83466;DHT22;73393;51.946;20.140;2024-01-15T04:33:04;0.60;94.70
83466;DHT22;73393;51.946;20.140;2024-01-15T04:35:30;0.60;94.80
83466;DHT22;73393;51.946;20.140;2024-01-15T04:37:56;0.60;95.10
83466;DHT22;73393;51.946;20.140;2024-01-15T04:40:21;0.60;95.20
83466;DHT22;73393;51.946;20.140;2024-01-15T04:42:47;0.50;95.10
83466;DHT22;73393;51.946;20.140;2024-01-15T04:45:13;0.50;94.90
83466;DHT22;73393;51.946;20.140;2024-01-15T04:47:39;0.50;94.70
83466;DHT22;73393;51.946;20.140;2024-01-15T04:50:05;0.50;94.60
83466;DHT22;73393;51.946;20.140;2024-01-15T04:52:31;0.50;94.30
83466;DHT22;73393;51.946;20.140;2024-01-15T04:54:56;0.50;93.60
83466;DHT22;73393;51.946;20.140;2024-01-15T04:57:22;0.60;93.40
83466;DHT22;73393;51.946;20.140;2024-01-15T04:59:48;0.50;92.90
83466;DHT22;73393;51.946;20.140;2024-01-15T05:02:13;0.50;92.90
83466;DHT22;73393;51.946;20.140;2024-01-15T05:04:39;0.60;92.50
83466;DHT22;73393;51.946;20.140;2024-01-15T05:07:05;0.60;92.50
83466;DHT22;73393;51.946;20.140;2024-01-15T05:09:30;0.60;92.50
83466;DHT22;73393;51.946;20.140;2024-01-15T05:11:56;0.60;92.50
83466;DHT22;73393;51.946;20.140;2024-01-15T05:14:21;0.70;92.40
83466;DHT22;73393;51.946;20.140;2024-01-15T05:16:47;0.60;92.00
83466;DHT22;73393;51.946;20.140;2024-01-15T05:19:13;0.60;92.10
83466;DHT22;73393;51.946;20.140;2024-01-15T05:21:39;0.60;92.00
83466;DHT22;73393;51.946;20.140;2024-01-15T05:24:05;0.60;91.90
83466;DHT22;73393;51.946;20.140;2024-01-15T05:26:30;0.60;92.00
83466;DHT22;73393;51.946;20.140;2024-01-15T05:28:56;0.60;91.60
83466;DHT22;73393;51.946;20.140;2024-01-15T05:31:22;0.70;91.50
83466;DHT22;73393;51.946;20.140;2024-01-15T05:33:47;0.70;91.90
83466;DHT22;73393;51.946;20.140;2024-01-15T05:36:13;0.70;91.10
83466;DHT22;73393;51.946;20.140;2024-01-15T05:38:39;0.70;91.20
83466;DHT22;73393;51.946;20.140;2024-01-15T05:41:05;0.70;90.90
83466;DHT22;73393;51.946;20.140;2024-01-15T05:43:31;0.70;90.70
83466;DHT22;73393;51.946;20.140;2024-01-15T05:45:57;0.70;90.50
83466;DHT22;73393;51.946;20.140;2024-01-15T05:48:22;0.60;90.50
83466;DHT22;73393;51.946;20.140;2024-01-15T05:50:48;0.60;90.80
83466;DHT22;73393;51.946;20.140;2024-01-15T05:53:13;0.60;91.10
83466;DHT22;73393;51.946;20.140;2024-01-15T05:55:40;0.60;90.70
83466;DHT22;73393;51.946;20.140;2024-01-15T05:58:05;0.60;90.70
83466;DHT22;73393;51.946;20.140;2024-01-15T06:00:31;0.60;90.20
83466;DHT22;73393;51.946;20.140;2024-01-15T06:02:58;0.60;90.20
83466;DHT22;73393;51.946;20.140;2024-01-15T06:05:24;0.60;90.40
83466;DHT22;73393;51.946;20.140;2024-01-15T06:07:50;0.60;90.10
83466;DHT22;73393;51.946;20.140;2024-01-15T06:10:15;0.60;90.50
83466;DHT22;73393;51.946;20.140;2024-01-15T06:12:43;0.70;90.30
83466;DHT22;73393;51.946;20.140;2024-01-15T06:15:09;0.70;89.60
83466;DHT22;73393;51.946;20.140;2024-01-15T06:17:35;0.70;89.80
83466;DHT22;73393;51.946;20.140;2024-01-15T06:20:01;0.70;89.80
83466;DHT22;73393;51.946;20.140;2024-01-15T06:22:27;0.70;90.10
83466;DHT22;73393;51.946;20.140;2024-01-15T06:24:54;0.70;89.60
83466;DHT22;73393;51.946;20.140;2024-01-15T06:27:21;0.70;89.70
83466;DHT22;73393;51.946;20.140;2024-01-15T06:29:46;0.70;89.50
83466;DHT22;73393;51.946;20.140;2024-01-15T06:32:14;0.70;89.70
83466;DHT22;73393;51.946;20.140;2024-01-15T06:34:40;0.80;89.60
83466;DHT22;73393;51.946;20.140;2024-01-15T06:37:06;0.70;89.70
83466;DHT22;73393;51.946;20.140;2024-01-15T06:39:31;0.80;90.00
83466;DHT22;73393;51.946;20.140;2024-01-15T06:41:57;0.70;90.60
83466;DHT22;73393;51.946;20.140;2024-01-15T06:44:23;0.60;91.90
83466;DHT22;73393;51.946;20.140;2024-01-15T06:46:48;0.60;93.30
83466;DHT22;73393;51.946;20.140;2024-01-15T06:49:14;0.50;94.20
83466;DHT22;73393;51.946;20.140;2024-01-15T06:51:40;0.50;95.10
83466;DHT22;73393;51.946;20.140;2024-01-15T06:54:06;0.50;96.00
83466;DHT22;73393;51.946;20.140;2024-01-15T06:56:32;0.50;96.60
83466;DHT22;73393;51.946;20.140;2024-01-15T06:58:57;0.40;97.40
83466;DHT22;73393;51.946;20.140;2024-01-15T07:01:23;0.40;97.60
83466;DHT22;73393;51.946;20.140;2024-01-15T07:03:49;0.30;98.20
83466;DHT22;73393;51.946;20.140;2024-01-15T07:06:15;0.30;98.70
83466;DHT22;73393;51.946;20.140;2024-01-15T07:08:41;0.20;99.00
83466;DHT22;73393;51.946;20.140;2024-01-15T07:11:07;0.20;99.10
83466;DHT22;73393;51.946;20.140;2024-01-15T07:13:33;0.20;99.20
83466;DHT22;73393;51.946;20.140;2024-01-15T07:16:00;0.20;99.50
83466;DHT22;73393;51.946;20.140;2024-01-15T07:18:25;0.20;99.70
83466;DHT22;73393;51.946;20.140;2024-01-15T07:20:51;0.20;99.90
83466;DHT22;73393;51.946;20.140;2024-01-15T07:23:18;0.20;100.00
83466;DHT22;73393;51.946;20.140;2024-01-15T07:25:45;0.20;100.00
83466;DHT22;73393;51.946;20.140;2024-01-15T07:28:10;0.20;100.00
83466;DHT22;73393;51.946;20.140;2024-01-15T07:30:36;0.20;100.00
83466;DHT22;73393;51.946;20.140;2024-01-15T07:33:04;0.20;100.00
83466;DHT22;73393;51.946;20.140;2024-01-15T07:35:30;0.20;100.00
83466;DHT22;73393;51.946;20.140;2024-01-15T07:37:55;0.20;100.00
83466;DHT22;73393;51.946;20.140;2024-01-15T07:40:21;0.20;100.00
83466;DHT22;73393;51.946;20.140;2024-01-15T07:42:47;0.20;100.00
83466;DHT22;73393;51.946;20.140;2024-01-15T07:45:13;0.20;100.00
83466;DHT22;73393;51.946;20.140;2024-01-15T07:47:38;0.20;100.00
83466;DHT22;73393;51.946;20.140;2024-01-15T07:50:05;0.20;100.00
83466;DHT22;73393;51.946;20.140;2024-01-15T07:52:31;0.20;100.00
83466;DHT22;73393;51.946;20.140;2024-01-15T07:54:56;0.20;100.00
83466;DHT22;73393;51.946;20.140;2024-01-15T07:57:24;0.30;100.00
83466;DHT22;73393;51.946;20.140;2024-01-15T07:59:50;0.20;100.00
83466;DHT22;73393;51.946;20.140;2024-01-15T08:02:16;0.20;100.00
83466;DHT22;73393;51.946;20.140;2024-01-15T08:04:42;0.20;100.00
83466;DHT22;73393;51.946;20.140;2024-01-15T08:07:08;0.30;100.00
83466;DHT22;73393;51.946;20.140;2024-01-15T08:09:34;0.30;100.00
83466;DHT22;73393;51.946;20.140;2024-01-15T08:11:59;0.30;99.80
83466;DHT22;73393;51.946;20.140;2024-01-15T08:14:25;0.30;98.50
83466;DHT22;73393;51.946;20.140;2024-01-15T08:16:51;0.20;97.80
83466;DHT22;73393;51.946;20.140;2024-01-15T08:19:16;0.30;98.20
83466;DHT22;73393;51.946;20.140;2024-01-15T08:21:42;0.30;97.70
83466;DHT22;73393;51.946;20.140;2024-01-15T08:24:08;0.40;97.10
83466;DHT22;73393;51.946;20.140;2024-01-15T08:26:35;0.40;95.80
83466;DHT22;73393;51.946;20.140;2024-01-15T08:29:01;0.50;95.30
83466;DHT22;73393;51.946;20.140;2024-01-15T08:31:26;0.60;95.00
83466;DHT22;73393;51.946;20.140;2024-01-15T08:33:52;0.70;94.80
83466;DHT22;73393;51.946;20.140;2024-01-15T08:36:18;0.80;92.00
83466;DHT22;73393;51.946;20.140;2024-01-15T08:38:44;0.80;91.60
83466;DHT22;73393;51.946;20.140;2024-01-15T08:41:11;0.80;91.00
83466;DHT22;73393;51.946;20.140;2024-01-15T08:43:36;0.80;90.60
83466;DHT22;73393;51.946;20.140;2024-01-15T08:46:02;0.80;89.80
83466;DHT22;73393;51.946;20.140;2024-01-15T08:48:29;0.80;88.80
83466;DHT22;73393;51.946;20.140;2024-01-15T08:50:55;0.80;89.30
83466;DHT22;73393;51.946;20.140;2024-01-15T08:53:20;0.80;88.90
83466;DHT22;73393;51.946;20.140;2024-01-15T08:55:46;0.80;87.80
83466;DHT22;73393;51.946;20.140;2024-01-15T08:58:13;0.80;88.60
83466;DHT22;73393;51.946;20.140;2024-01-15T09:00:38;0.80;87.50
83466;DHT22;73393;51.946;20.140;2024-01-15T09:03:04;0.80;86.70
83466;DHT22;73393;51.946;20.140;2024-01-15T09:05:30;0.90;86.80
83466;DHT22;73393;51.946;20.140;2024-01-15T09:07:56;1.00;87.10
83466;DHT22;73393;51.946;20.140;2024-01-15T09:10:21;1.10;87.30
83466;DHT22;73393;51.946;20.140;2024-01-15T09:12:47;1.10;86.40
83466;DHT22;73393;51.946;20.140;2024-01-15T09:15:14;1.10;86.00
83466;DHT22;73393;51.946;20.140;2024-01-15T09:17:40;1.20;84.70
83466;DHT22;73393;51.946;20.140;2024-01-15T09:20:06;1.20;85.10
83466;DHT22;73393;51.946;20.140;2024-01-15T09:22:32;1.20;84.10
83466;DHT22;73393;51.946;20.140;2024-01-15T09:24:58;1.20;85.30
83466;DHT22;73393;51.946;20.140;2024-01-15T09:27:24;1.30;85.10
83466;DHT22;73393;51.946;20.140;2024-01-15T09:29:52;1.30;84.30
83466;DHT22;73393;51.946;20.140;2024-01-15T09:32:17;1.40;84.20
83466;DHT22;73393;51.946;20.140;2024-01-15T09:34:44;1.50;84.70
83466;DHT22;73393;51.946;20.140;2024-01-15T09:37:09;1.30;83.40
83466;DHT22;73393;51.946;20.140;2024-01-15T09:39:35;1.40;83.80
83466;DHT22;73393;51.946;20.140;2024-01-15T09:42:01;1.30;83.40
83466;DHT22;73393;51.946;20.140;2024-01-15T09:44:27;1.30;84.00
83466;DHT22;73393;51.946;20.140;2024-01-15T09:46:53;1.40;85.10
83466;DHT22;73393;51.946;20.140;2024-01-15T09:49:22;1.50;84.20
83466;DHT22;73393;51.946;20.140;2024-01-15T09:51:48;1.40;83.40
83466;DHT22;73393;51.946;20.140;2024-01-15T09:54:15;1.50;84.30
83466;DHT22;73393;51.946;20.140;2024-01-15T09:56:46;1.60;83.60
83466;DHT22;73393;51.946;20.140;2024-01-15T09:59:18;1.60;83.60
83466;DHT22;73393;51.946;20.140;2024-01-15T10:01:44;1.60;83.10
83466;DHT22;73393;51.946;20.140;2024-01-15T10:04:11;1.60;84.10
83466;DHT22;73393;51.946;20.140;2024-01-15T10:06:38;1.70;83.30
83466;DHT22;73393;51.946;20.140;2024-01-15T10:09:05;1.70;83.50
83466;DHT22;73393;51.946;20.140;2024-01-15T10:11:31;1.60;84.70
83466;DHT22;73393;51.946;20.140;2024-01-15T10:13:57;1.50;86.30
83466;DHT22;73393;51.946;20.140;2024-01-15T10:16:23;1.40;86.90
83466;DHT22;73393;51.946;20.140;2024-01-15T10:18:49;1.20;88.80
83466;DHT22;73393;51.946;20.140;2024-01-15T10:21:15;1.20;89.20
83466;DHT22;73393;51.946;20.140;2024-01-15T10:23:41;1.20;88.50
83466;DHT22;73393;51.946;20.140;2024-01-15T10:26:07;1.10;88.00
83466;DHT22;73393;51.946;20.140;2024-01-15T10:28:33;1.20;88.60
83466;DHT22;73393;51.946;20.140;2024-01-15T10:31:00;1.40;88.30
83466;DHT22;73393;51.946;20.140;2024-01-15T10:33:26;1.40;87.10
83466;DHT22;73393;51.946;20.140;2024-01-15T10:35:59;1.30;86.50
83466;DHT22;73393;51.946;20.140;2024-01-15T10:38:25;1.20;87.80
83466;DHT22;73393;51.946;20.140;2024-01-15T10:40:52;1.10;87.70
83466;DHT22;73393;51.946;20.140;2024-01-15T10:43:20;1.10;88.10
83466;DHT22;73393;51.946;20.140;2024-01-15T10:45:47;1.20;88.70
83466;DHT22;73393;51.946;20.140;2024-01-15T10:48:13;1.40;88.60
83466;DHT22;73393;51.946;20.140;2024-01-15T10:50:39;1.70;87.10
83466;DHT22;73393;51.946;20.140;2024-01-15T10:53:05;1.90;86.70
83466;DHT22;73393;51.946;20.140;2024-01-15T10:55:32;2.00;85.20
83466;DHT22;73393;51.946;20.140;2024-01-15T10:57:59;2.10;84.70
83466;DHT22;73393;51.946;20.140;2024-01-15T11:00:26;2.00;82.90
83466;DHT22;73393;51.946;20.140;2024-01-15T11:02:52;1.80;84.00
83466;DHT22;73393;51.946;20.140;2024-01-15T11:05:21;1.70;85.60
83466;DHT22;73393;51.946;20.140;2024-01-15T11:07:48;1.80;86.30
83466;DHT22;73393;51.946;20.140;2024-01-15T11:10:40;1.90;87.10
83466;DHT22;73393;51.946;20.140;2024-01-15T11:13:20;1.90;87.60
83466;DHT22;73393;51.946;20.140;2024-01-15T11:16:06;1.60;88.30
83466;DHT22;73393;51.946;20.140;2024-01-15T11:18:42;1.50;89.10
83466;DHT22;73393;51.946;20.140;2024-01-15T11:23:49;1.20;92.20
83466;DHT22;73393;51.946;20.140;2024-01-15T11:26:36;1.10;93.30
83466;DHT22;73393;51.946;20.140;2024-01-15T11:29:04;1.00;93.50
83466;DHT22;73393;51.946;20.140;2024-01-15T11:34:09;1.20;92.80
83466;DHT22;73393;51.946;20.140;2024-01-15T11:41:58;1.20;91.40
83466;DHT22;73393;51.946;20.140;2024-01-15T11:44:24;1.20;90.70
83466;DHT22;73393;51.946;20.140;2024-01-15T11:46:59;1.10;90.10
83466;DHT22;73393;51.946;20.140;2024-01-15T11:49:58;1.30;90.40
83466;DHT22;73393;51.946;20.140;2024-01-15T11:52:25;1.20;90.00
83466;DHT22;73393;51.946;20.140;2024-01-15T11:55:01;1.40;89.50
83466;DHT22;73393;51.946;20.140;2024-01-15T11:57:52;1.40;88.90
83466;DHT22;73393;51.946;20.140;2024-01-15T12:00:18;1.40;88.90
83466;DHT22;73393;51.946;20.140;2024-01-15T12:02:45;1.40;89.00
83466;DHT22;73393;51.946;20.140;2024-01-15T12:05:17;1.40;88.60
83466;DHT22;73393;51.946;20.140;2024-01-15T12:07:44;1.20;88.50
83466;DHT22;73393;51.946;20.140;2024-01-15T12:10:11;1.20;90.40
83466;DHT22;73393;51.946;20.140;2024-01-15T12:15:26;1.10;89.40
83466;DHT22;73393;51.946;20.140;2024-01-15T12:17:52;1.10;90.10
83466;DHT22;73393;51.946;20.140;2024-01-15T12:20:19;1.00;91.70
83466;DHT22;73393;51.946;20.140;2024-01-15T12:22:46;0.90;91.50
83466;DHT22;73393;51.946;20.140;2024-01-15T12:25:11;0.80;93.00
83466;DHT22;73393;51.946;20.140;2024-01-15T12:27:37;0.70;94.30
83466;DHT22;73393;51.946;20.140;2024-01-15T12:30:03;0.70;94.10
83466;DHT22;73393;51.946;20.140;2024-01-15T12:32:29;0.70;94.20
83466;DHT22;73393;51.946;20.140;2024-01-15T12:34:54;0.80;93.60
83466;DHT22;73393;51.946;20.140;2024-01-15T12:37:20;0.80;92.80
83466;DHT22;73393;51.946;20.140;2024-01-15T12:39:46;0.80;92.60
83466;DHT22;73393;51.946;20.140;2024-01-15T12:42:14;0.80;92.50
83466;DHT22;73393;51.946;20.140;2024-01-15T12:44:41;0.90;91.60
83466;DHT22;73393;51.946;20.140;2024-01-15T12:47:06;0.80;91.90
83466;DHT22;73393;51.946;20.140;2024-01-15T12:49:32;0.90;91.50
83466;DHT22;73393;51.946;20.140;2024-01-15T12:51:59;0.90;90.10
83466;DHT22;73393;51.946;20.140;2024-01-15T12:54:25;0.90;89.70
83466;DHT22;73393;51.946;20.140;2024-01-15T12:56:51;0.90;89.60
83466;DHT22;73393;51.946;20.140;2024-01-15T12:59:18;1.00;90.10
83466;DHT22;73393;51.946;20.140;2024-01-15T13:01:45;1.00;90.00
83466;DHT22;73393;51.946;20.140;2024-01-15T13:04:20;1.00;89.40
83466;DHT22;73393;51.946;20.140;2024-01-15T13:06:46;1.00;89.60
83466;DHT22;73393;51.946;20.140;2024-01-15T13:09:12;0.90;89.40
83466;DHT22;73393;51.946;20.140;2024-01-15T13:11:37;0.90;89.30
83466;DHT22;73393;51.946;20.140;2024-01-15T13:14:03;0.90;89.60
83466;DHT22;73393;51.946;20.140;2024-01-15T13:16:29;0.90;89.90
83466;DHT22;73393;51.946;20.140;2024-01-15T13:18:55;0.90;89.90
83466;DHT22;73393;51.946;20.140;2024-01-15T13:21:24;0.80;89.40
83466;DHT22;73393;51.946;20.140;2024-01-15T13:23:50;0.80;89.70
83466;DHT22;73393;51.946;20.140;2024-01-15T13:26:15;0.90;90.50
83466;DHT22;73393;51.946;20.140;2024-01-15T13:28:43;0.90;89.40
83466;DHT22;73393;51.946;20.140;2024-01-15T13:31:09;0.80;89.40
83466;DHT22;73393;51.946;20.140;2024-01-15T13:33:34;0.80;88.80
83466;DHT22;73393;51.946;20.140;2024-01-15T13:36:00;0.90;88.40
83466;DHT22;73393;51.946;20.140;2024-01-15T13:38:26;0.90;87.90
83466;DHT22;73393;51.946;20.140;2024-01-15T13:40:53;0.90;88.50
83466;DHT22;73393;51.946;20.140;2024-01-15T13:43:22;0.80;89.30
83466;DHT22;73393;51.946;20.140;2024-01-15T13:45:47;0.70;89.70
83466;DHT22;73393;51.946;20.140;2024-01-15T13:48:13;0.70;89.80
83466;DHT22;73393;51.946;20.140;2024-01-15T13:50:38;0.80;89.60
83466;DHT22;73393;51.946;20.140;2024-01-15T13:53:04;0.70;89.80
83466;DHT22;73393;51.946;20.140;2024-01-15T13:55:31;0.80;89.20
83466;DHT22;73393;51.946;20.140;2024-01-15T13:57:57;0.70;88.90
83466;DHT22;73393;51.946;20.140;2024-01-15T14:00:22;0.80;89.30
83466;DHT22;73393;51.946;20.140;2024-01-15T14:02:48;0.70;88.30
83466;DHT22;73393;51.946;20.140;2024-01-15T14:05:14;0.70;88.40
83466;DHT22;73393;51.946;20.140;2024-01-15T14:07:40;0.70;87.80
83466;DHT22;73393;51.946;20.140;2024-01-15T14:10:06;0.60;87.70
83466;DHT22;73393;51.946;20.140;2024-01-15T14:12:33;0.70;87.40
83466;DHT22;73393;51.946;20.140;2024-01-15T14:15:00;0.60;87.50
83466;DHT22;73393;51.946;20.140;2024-01-15T14:17:27;0.70;87.40
83466;DHT22;73393;51.946;20.140;2024-01-15T14:19:53;0.70;87.10
83466;DHT22;73393;51.946;20.140;2024-01-15T14:22:18;0.70;87.70
83466;DHT22;73393;51.946;20.140;2024-01-15T14:24:44;0.70;87.20
83466;DHT22;73393;51.946;20.140;2024-01-15T14:27:10;0.60;87.40
83466;DHT22;73393;51.946;20.140;2024-01-15T14:29:35;0.60;87.70
83466;DHT22;73393;51.946;20.140;2024-01-15T14:32:02;0.60;88.20
83466;DHT22;73393;51.946;20.140;2024-01-15T14:34:28;0.60;88.20
83466;DHT22;73393;51.946;20.140;2024-01-15T14:36:53;0.50;89.00
83466;DHT22;73393;51.946;20.140;2024-01-15T14:39:20;0.60;89.30
83466;DHT22;73393;51.946;20.140;2024-01-15T14:41:46;0.60;89.90
83466;DHT22;73393;51.946;20.140;2024-01-15T14:44:12;0.50;91.20
83466;DHT22;73393;51.946;20.140;2024-01-15T14:46:38;0.40;92.00
83466;DHT22;73393;51.946;20.140;2024-01-15T14:49:06;0.30;93.10
83466;DHT22;73393;51.946;20.140;2024-01-15T14:51:32;0.20;93.50
83466;DHT22;73393;51.946;20.140;2024-01-15T14:53:57;0.10;94.30
83466;DHT22;73393;51.946;20.140;2024-01-15T14:56:24;0.10;94.90
83466;DHT22;73393;51.946;20.140;2024-01-15T14:58:49;0.10;94.90
83466;DHT22;73393;51.946;20.140;2024-01-15T15:01:15;0.10;94.60
83466;DHT22;73393;51.946;20.140;2024-01-15T15:03:41;0.10;94.70
83466;DHT22;73393;51.946;20.140;2024-01-15T15:06:09;0.10;94.20
83466;DHT22;73393;51.946;20.140;2024-01-15T15:08:36;0.10;93.70
83466;DHT22;73393;51.946;20.140;2024-01-15T15:11:04;0.10;93.00
83466;DHT22;73393;51.946;20.140;2024-01-15T15:13:29;0.20;93.00
83466;DHT22;73393;51.946;20.140;2024-01-15T15:15:55;0.30;92.10
83466;DHT22;73393;51.946;20.140;2024-01-15T15:18:21;0.30;91.50
83466;DHT22;73393;51.946;20.140;2024-01-15T15:20:47;0.30;91.30
83466;DHT22;73393;51.946;20.140;2024-01-15T15:23:13;0.30;90.40
83466;DHT22;73393;51.946;20.140;2024-01-15T15:25:39;0.40;90.60
83466;DHT22;73393;51.946;20.140;2024-01-15T15:28:04;0.40;89.70
83466;DHT22;73393;51.946;20.140;2024-01-15T15:30:32;0.40;88.40
83466;DHT22;73393;51.946;20.140;2024-01-15T15:32:57;0.40;88.70
83466;DHT22;73393;51.946;20.140;2024-01-15T15:35:24;0.40;88.20
83466;DHT22;73393;51.946;20.140;2024-01-15T15:37:50;0.40;88.10